createdAt,value
2019-06-08T00:02:18.373Z,100619.35
2019-06-08T00:04:49.033Z,100635.15
2019-06-08T00:07:20.788Z,100628.31
2019-06-08T00:09:51.458Z,100619.16
2019-06-08T00:12:23.274Z,100622.17
2019-06-08T00:14:53.991Z,100616.00
2019-06-08T00:17:37.664Z,100621.50
2019-06-08T00:19:56.622Z,100618.84
2019-06-08T00:22:27.142Z,100612.70
2019-06-08T00:24:57.597Z,100624.70
2019-06-08T00:27:28.018Z,100616.92
2019-06-08T00:29:58.508Z,100621.56
2019-06-08T00:32:29.064Z,100628.59
2019-06-08T00:34:59.562Z,100616.77
2019-06-08T00:37:30.054Z,100625.08
2019-06-08T00:40:00.606Z,100626.77
2019-06-08T00:42:31.112Z,100626.09
2019-06-08T00:45:01.641Z,100612.97
2019-06-08T00:47:47.035Z,100615.80
2019-06-08T00:50:04.526Z,100610.11
2019-06-08T00:52:35.008Z,100613.58
2019-06-08T00:55:05.585Z,100615.75
2019-06-08T00:57:36.121Z,100628.57
2019-06-08T01:00:10.528Z,100643.38
2019-06-08T01:02:39.221Z,100643.70
2019-06-08T01:05:10.214Z,100651.20
2019-06-08T01:07:40.694Z,100636.06
2019-06-08T01:10:12.906Z,100607.78
2019-06-08T01:12:43.423Z,100606.13
2019-06-08T01:15:14.612Z,100607.61
2019-06-08T01:17:53.221Z,100603.94
2019-06-08T01:20:17.447Z,100608.09
2019-06-08T01:22:47.920Z,100604.59
2019-06-08T01:25:20.102Z,100627.40
2019-06-08T01:27:50.866Z,100623.08
2019-06-08T01:30:22.198Z,100621.40
2019-06-08T01:32:52.806Z,100618.57
2019-06-08T01:35:24.808Z,100635.38
2019-06-08T01:37:55.476Z,100635.69
2019-06-08T01:40:27.354Z,100605.27
2019-06-08T01:42:58.213Z,100605.76
2019-06-08T01:45:32.973Z,100599.11
2019-06-08T01:48:19.221Z,100578.48
2019-06-08T01:50:38.290Z,100518.77
2019-06-08T01:53:08.755Z,100506.98
2019-06-08T01:55:39.288Z,100561.16
2019-06-08T01:58:09.787Z,100603.41
2019-06-08T02:00:41.625Z,100630.31
2019-06-08T02:03:12.529Z,100621.52
2019-06-08T02:05:43.260Z,100622.02
2019-06-08T02:08:13.716Z,100613.03
2019-06-08T02:10:44.207Z,100603.55
2019-06-08T02:13:14.690Z,100593.41
2019-06-08T02:15:45.195Z,100580.63
2019-06-08T02:18:15.687Z,100561.80
2019-06-08T02:20:46.175Z,100567.62
2019-06-08T02:23:16.655Z,100596.73
2019-06-08T02:25:47.156Z,100610.70
2019-06-08T02:28:17.663Z,100627.50
2019-06-08T02:30:48.199Z,100628.33
2019-06-08T02:33:18.730Z,100625.50
2019-06-08T02:35:49.212Z,100635.14
2019-06-08T02:38:19.718Z,100643.95
2019-06-08T02:40:50.205Z,100628.97
2019-06-08T02:43:20.744Z,100641.46
2019-06-08T02:45:51.200Z,100648.42
2019-06-08T02:48:23.815Z,100653.73
2019-06-08T02:50:57.068Z,100654.24
2019-06-08T02:53:29.611Z,100651.25
2019-06-08T02:56:01.125Z,100656.90
2019-06-08T02:58:37.945Z,100661.20
2019-06-08T03:01:07.700Z,100652.55
2019-06-08T03:03:40.250Z,100658.56
2019-06-08T03:06:10.837Z,100652.05
2019-06-08T03:08:43.850Z,100647.59
2019-06-08T03:11:15.969Z,100645.73
2019-06-08T03:13:48.857Z,100651.58
2019-06-08T03:16:19.391Z,100655.57
2019-06-08T03:18:49.914Z,100658.23
2019-06-08T03:21:20.525Z,100664.17
2019-06-08T03:23:51.237Z,100656.88
2019-06-08T03:26:21.716Z,100659.19
2019-06-08T03:28:52.189Z,100661.66
2019-06-08T03:31:22.703Z,100651.85
2019-06-08T03:33:56.288Z,100635.92
2019-06-08T03:36:25.514Z,100639.08
2019-06-08T03:38:56.077Z,100630.93
2019-06-08T03:41:26.577Z,100642.56
2019-06-08T03:43:57.100Z,100645.20
2019-06-08T03:46:27.507Z,100625.16
2019-06-08T03:48:57.999Z,100634.95
2019-06-08T03:51:28.381Z,100649.73
2019-06-08T03:53:58.867Z,100629.31
2019-06-08T03:56:29.393Z,100628.95
2019-06-08T03:58:59.888Z,100630.82
2019-06-08T04:01:30.382Z,100629.48
2019-06-08T04:04:00.992Z,100628.67
2019-06-08T04:06:31.400Z,100626.50
2019-06-08T04:09:01.906Z,100621.34
2019-06-08T04:11:32.421Z,100637.98
2019-06-08T04:14:02.836Z,100628.00
2019-06-08T04:16:33.303Z,100637.13
2019-06-08T04:19:03.822Z,100638.13
2019-06-08T04:21:34.307Z,100643.60
2019-06-08T04:24:04.759Z,100651.61
2019-06-08T04:26:35.295Z,100641.98
2019-06-08T04:29:05.772Z,100648.13
2019-06-08T04:31:37.827Z,100641.63
2019-06-08T04:34:08.448Z,100640.95
2019-06-08T04:36:39.007Z,100633.83
2019-06-08T04:39:10.476Z,100645.28
2019-06-08T04:41:42.608Z,100645.28
2019-06-08T04:44:13.223Z,100654.74
2019-06-08T04:46:45.031Z,100660.72
2019-06-08T04:49:16.055Z,100679.49
2019-06-08T04:51:47.631Z,100680.03
2019-06-08T04:54:18.792Z,100688.03
2019-06-08T04:56:49.684Z,100693.16
2019-06-08T04:59:20.216Z,100696.36
2019-06-08T05:01:50.613Z,100698.86
2019-06-08T05:04:21.095Z,100705.18
2019-06-08T05:06:51.688Z,100715.88
2019-06-08T05:09:22.182Z,100725.36
2019-06-08T05:11:52.657Z,100713.88
2019-06-08T05:14:23.168Z,100711.05
2019-06-08T05:16:53.661Z,100721.18
2019-06-08T05:19:24.151Z,100728.52
2019-06-08T05:21:54.621Z,100720.73
2019-06-08T05:24:25.161Z,100706.61
2019-06-08T05:26:55.612Z,100706.94
2019-06-08T05:29:26.097Z,100704.79
2019-06-08T05:31:56.593Z,100703.64
2019-06-08T05:34:27.098Z,100721.98
2019-06-08T05:36:57.591Z,100747.63
2019-06-08T05:39:27.998Z,100737.82
2019-06-08T05:41:58.488Z,100739.13
2019-06-08T05:44:28.960Z,100738.64
2019-06-08T05:46:59.469Z,100748.64
2019-06-08T05:49:29.931Z,100748.81
2019-06-08T05:52:00.406Z,100754.12
2019-06-08T05:54:31.016Z,100756.64
2019-06-08T05:57:01.471Z,100744.64
2019-06-08T05:59:31.994Z,100728.30
2019-06-08T06:02:02.555Z,100724.98
2019-06-08T06:04:33.146Z,100722.00
2019-06-08T06:07:03.655Z,100726.97
2019-06-08T06:09:34.156Z,100724.64
2019-06-08T06:12:05.461Z,100744.95
2019-06-08T06:14:36.984Z,100759.13
2019-06-08T06:17:07.607Z,100755.45
2019-06-08T06:19:38.133Z,100767.29
2019-06-08T06:22:08.625Z,100766.61
2019-06-08T06:24:39.101Z,100758.47
2019-06-08T06:27:09.592Z,100761.30
2019-06-08T06:29:41.322Z,100777.27
2019-06-08T06:32:11.848Z,100774.61
2019-06-08T06:34:43.800Z,100783.95
2019-06-08T06:37:14.697Z,100780.27
2019-06-08T06:39:45.945Z,100778.94
2019-06-08T06:42:16.581Z,100785.28
2019-06-08T06:44:47.526Z,100788.27
2019-06-08T06:47:19.430Z,100788.59
2019-06-08T06:49:50.675Z,100788.23
2019-06-08T06:52:21.430Z,100784.55
2019-06-08T06:54:53.231Z,100783.06
2019-06-08T06:57:23.947Z,100787.91
2019-06-08T06:59:54.470Z,100791.23
2019-06-08T07:02:25.110Z,100791.10
2019-06-08T07:04:55.617Z,100800.08
2019-06-08T07:07:26.094Z,100803.91
2019-06-08T07:09:56.602Z,100804.56
2019-06-08T07:12:27.122Z,100797.53
2019-06-08T07:14:57.599Z,100809.20
2019-06-08T07:17:28.019Z,100804.18
2019-06-08T07:19:58.928Z,100809.55
2019-06-08T07:22:29.547Z,100804.43
2019-06-08T07:25:00.087Z,100815.09
2019-06-08T07:27:30.524Z,100820.08
2019-06-08T07:30:01.027Z,100822.44
2019-06-08T07:32:31.507Z,100815.06
2019-06-08T07:35:01.998Z,100824.76
2019-06-08T07:37:32.731Z,100822.78
2019-06-08T07:40:04.022Z,100828.73
2019-06-08T07:42:34.513Z,100814.95
2019-06-08T07:45:05.623Z,100825.14
2019-06-08T07:47:36.093Z,100847.11
2019-06-08T07:50:07.290Z,100838.23
2019-06-08T07:52:37.802Z,100831.00
2019-06-08T07:55:08.309Z,100815.25
2019-06-08T07:57:38.886Z,100820.56
2019-06-08T08:00:10.514Z,100830.32
2019-06-08T08:02:41.030Z,100841.53
2019-06-08T08:05:12.233Z,100845.51
2019-06-08T08:07:42.736Z,100845.46
2019-06-08T08:10:13.283Z,100862.03
2019-06-08T08:12:43.828Z,100852.44
2019-06-08T08:15:16.141Z,100865.17
2019-06-08T08:17:46.666Z,100864.01
2019-06-08T08:20:17.254Z,100860.30
2019-06-08T08:22:49.759Z,100874.47
2019-06-08T08:25:20.093Z,100863.84
2019-06-08T08:27:51.949Z,100862.84
2019-06-08T08:30:23.903Z,100870.37
2019-06-08T08:32:55.134Z,100868.34
2019-06-08T08:35:28.039Z,100874.84
2019-06-08T08:38:02.985Z,100874.70
2019-06-08T08:40:31.024Z,100866.69
2019-06-08T08:43:01.769Z,100870.67
2019-06-08T08:45:32.294Z,100871.37
2019-06-08T08:48:20.709Z,100866.53
2019-06-08T08:50:35.083Z,100871.88
2019-06-08T08:53:05.626Z,100869.21
2019-06-08T08:55:37.947Z,100882.23
2019-06-08T08:58:09.270Z,100895.09
2019-06-08T09:00:41.272Z,100883.72
2019-06-08T09:03:28.483Z,100887.89
2019-06-08T09:05:44.149Z,100891.89
2019-06-08T09:08:14.647Z,100899.52
2019-06-08T09:10:47.889Z,100900.14
2019-06-08T09:13:18.641Z,100923.70
2019-06-08T09:15:52.286Z,100911.55
2019-06-08T09:18:22.093Z,100921.91
2019-06-08T09:20:53.864Z,100925.59
2019-06-08T09:23:25.638Z,100938.29
2019-06-08T09:26:03.939Z,100913.58
2019-06-08T09:28:29.106Z,100944.12
2019-06-08T09:31:02.299Z,100953.83
2019-06-08T09:33:31.894Z,100964.50
2019-06-08T09:36:04.793Z,100959.98
2019-06-08T09:38:34.770Z,100962.65
2019-06-08T09:41:05.711Z,100975.80
2019-06-08T09:43:38.801Z,100973.48
2019-06-08T09:46:09.647Z,100962.28
2019-06-08T09:48:40.189Z,100958.95
2019-06-08T09:51:10.646Z,100954.57
2019-06-08T09:53:41.821Z,100974.90
2019-06-08T09:56:12.606Z,100980.25
2019-06-08T09:58:43.073Z,100973.03
2019-06-08T10:01:13.675Z,100980.83
2019-06-08T10:03:44.209Z,100981.23
2019-06-08T10:06:14.707Z,100982.56
2019-06-08T10:08:45.174Z,100982.56
2019-06-08T10:11:15.805Z,100984.92
2019-06-08T10:13:47.801Z,100998.28
2019-06-08T10:16:18.791Z,100996.30
2019-06-08T10:18:51.484Z,101024.88
2019-06-08T10:21:21.604Z,101007.55
2019-06-08T10:23:52.134Z,101008.04
2019-06-08T10:26:22.680Z,101022.70
2019-06-08T10:28:53.246Z,101010.83
2019-06-08T10:31:38.302Z,100999.30
2019-06-08T10:33:58.610Z,101017.30
2019-06-08T10:36:28.546Z,101026.59
2019-06-08T10:39:02.777Z,101022.22
2019-06-08T10:41:31.433Z,101028.30
2019-06-08T10:44:03.394Z,101035.62
2019-06-08T10:46:34.013Z,101039.95
2019-06-08T10:49:08.481Z,101044.69
2019-06-08T10:51:40.188Z,101039.69
2019-06-08T10:54:11.179Z,101037.02
2019-06-08T10:56:41.410Z,101043.20
2019-06-08T10:59:12.470Z,101059.44
2019-06-08T11:01:43.570Z,101063.94
2019-06-08T11:04:14.175Z,101045.72
2019-06-08T11:06:44.755Z,101057.75
2019-06-08T11:09:18.145Z,101060.09
2019-06-08T11:11:48.104Z,101052.08
2019-06-08T11:14:21.886Z,101060.73
2019-06-08T11:16:51.119Z,101069.11
2019-06-08T11:19:21.741Z,101077.09
2019-06-08T11:21:52.286Z,101068.11
2019-06-08T11:24:25.163Z,101074.78
2019-06-08T11:26:57.608Z,101091.80
2019-06-08T11:29:27.633Z,101090.30
2019-06-08T11:32:00.054Z,101085.45
2019-06-08T11:34:31.167Z,101085.80
2019-06-08T11:37:03.262Z,101090.80
2019-06-08T11:39:34.282Z,101086.48
2019-06-08T11:42:08.713Z,101107.50
2019-06-08T11:44:39.088Z,101096.15
2019-06-08T11:47:12.286Z,101098.98
2019-06-08T11:49:41.718Z,101104.16
2019-06-08T11:52:12.216Z,101108.01
2019-06-08T11:54:42.805Z,101101.98
2019-06-08T11:57:14.274Z,101101.17
2019-06-08T11:59:44.819Z,101109.16
2019-06-08T12:02:15.590Z,101117.53
2019-06-08T12:04:46.142Z,101130.22
2019-06-08T12:07:16.717Z,101132.05
2019-06-08T12:09:49.987Z,101130.72
2019-06-08T12:12:21.310Z,101124.53
2019-06-08T12:14:52.028Z,101108.50
2019-06-08T12:17:22.756Z,101138.59
2019-06-08T12:19:53.714Z,101132.23
2019-06-08T12:22:24.287Z,101162.45
2019-06-08T12:24:54.884Z,101139.24
2019-06-08T12:27:33.118Z,101138.66
2019-06-08T12:29:58.771Z,101131.63
2019-06-08T12:32:29.470Z,101126.48
2019-06-08T12:35:00.273Z,101140.64
2019-06-08T12:37:31.064Z,101129.87
2019-06-08T12:40:21.025Z,101120.05
2019-06-08T12:42:51.446Z,101131.38
2019-06-08T12:45:21.992Z,101119.56
2019-06-08T12:47:52.535Z,101117.36
2019-06-08T12:50:23.079Z,101116.03
2019-06-08T12:52:53.648Z,101125.25
2019-06-08T12:55:25.414Z,101118.52
2019-06-08T12:57:58.133Z,101110.05
2019-06-08T13:00:28.720Z,101118.81
2019-06-08T13:02:59.268Z,101127.53
2019-06-08T13:05:29.759Z,101116.39
2019-06-08T13:08:00.219Z,101120.10
2019-06-08T13:10:30.733Z,101113.98
2019-06-08T13:13:01.323Z,101119.13
2019-06-08T13:15:31.859Z,101127.38
2019-06-08T13:18:02.343Z,101120.80
2019-06-08T13:20:32.858Z,101138.33
2019-06-08T13:23:03.390Z,101117.95
2019-06-08T13:25:40.075Z,101132.64
2019-06-08T13:28:08.791Z,101133.02
2019-06-08T13:30:38.972Z,101146.05
2019-06-08T13:33:09.931Z,101141.44
2019-06-08T13:35:40.504Z,101133.10
2019-06-08T13:38:11.115Z,101144.48
2019-06-08T13:40:41.675Z,101148.86
2019-06-08T13:43:13.261Z,101147.22
2019-06-08T13:45:44.008Z,101150.73
2019-06-08T13:48:14.563Z,101144.91
2019-06-08T13:50:46.607Z,101143.41
2019-06-08T13:53:24.652Z,101148.27
2019-06-08T13:55:56.314Z,101155.45
2019-06-08T13:58:32.164Z,101163.63
2019-06-08T14:00:57.410Z,101163.66
2019-06-08T14:03:27.850Z,101162.61
2019-06-08T14:05:58.425Z,101169.62
2019-06-08T14:08:32.959Z,101167.62
2019-06-08T14:11:01.520Z,101183.70
2019-06-08T14:13:34.472Z,101167.15
2019-06-08T14:16:04.481Z,101161.92
2019-06-08T14:18:35.046Z,101159.86
2019-06-08T14:21:05.747Z,101155.70
2019-06-08T14:23:41.079Z,101160.72
2019-06-08T14:26:08.707Z,101166.61
2019-06-08T14:28:39.257Z,101155.14
2019-06-08T14:31:10.961Z,101166.17
2019-06-08T14:33:41.670Z,101170.91
2019-06-08T14:36:12.218Z,101175.77
2019-06-08T14:38:42.806Z,101176.62
2019-06-08T14:41:13.411Z,101173.80
2019-06-08T14:43:44.107Z,101178.30
2019-06-08T14:46:14.722Z,101176.63
2019-06-08T14:48:45.602Z,101177.80
2019-06-08T14:51:16.199Z,101177.25
2019-06-08T14:53:48.538Z,101164.01
2019-06-08T14:56:20.158Z,101172.76
2019-06-08T14:58:51.351Z,101185.77
2019-06-08T15:01:23.046Z,101177.59
2019-06-08T15:03:54.508Z,101176.13
2019-06-08T15:06:27.759Z,101169.73
2019-06-08T15:08:58.239Z,101177.33
2019-06-08T15:11:34.873Z,101181.75
2019-06-08T15:14:03.601Z,101178.74
2019-06-08T15:16:34.148Z,101173.77
2019-06-08T15:19:04.720Z,101178.13
2019-06-08T15:21:38.101Z,101170.15
2019-06-08T15:24:14.135Z,101170.43
2019-06-08T15:26:45.273Z,101181.23
2019-06-08T15:29:17.583Z,101180.61
2019-06-08T15:31:48.484Z,101186.41
2019-06-08T15:34:19.034Z,101177.59
2019-06-08T15:36:49.609Z,101182.98
2019-06-08T15:39:21.598Z,101188.34
2019-06-08T15:41:52.316Z,101189.36
2019-06-08T15:44:24.624Z,101187.09
2019-06-08T15:46:55.245Z,101193.45
2019-06-08T15:49:28.522Z,101197.42
2019-06-08T15:51:58.377Z,101195.23
2019-06-08T15:54:32.257Z,101197.70
2019-06-08T15:57:01.203Z,101203.08
2019-06-08T15:59:37.953Z,101209.45
2019-06-08T16:02:04.188Z,101207.70
2019-06-08T16:04:34.732Z,101205.68
2019-06-08T16:07:05.582Z,101217.39
2019-06-08T16:09:55.431Z,101220.82
2019-06-08T16:12:26.203Z,101221.74
2019-06-08T16:14:56.597Z,101224.86
2019-06-08T16:17:27.178Z,101221.86
2019-06-08T16:19:57.570Z,101217.58
2019-06-08T16:22:28.063Z,101230.66
2019-06-08T16:24:58.569Z,101215.12
2019-06-08T16:27:29.701Z,101222.34
2019-06-08T16:30:00.394Z,101229.69
2019-06-08T16:32:31.490Z,101232.89
2019-06-08T16:35:02.150Z,101230.35
2019-06-08T16:37:33.501Z,101232.37
2019-06-08T16:40:04.244Z,101226.90
2019-06-08T16:42:34.809Z,101235.42
2019-06-08T16:45:05.363Z,101238.10
2019-06-08T16:47:35.929Z,101244.63
2019-06-08T16:50:06.645Z,101245.64
2019-06-08T16:52:37.106Z,101254.35
2019-06-08T16:55:07.675Z,101265.21
2019-06-08T16:57:40.770Z,101269.23
2019-06-08T17:00:38.404Z,101270.24
2019-06-08T17:02:44.105Z,101268.21
2019-06-08T17:05:14.644Z,101263.19
2019-06-08T17:07:45.126Z,101263.19
2019-06-08T17:10:16.103Z,101261.80
2019-06-08T17:12:46.611Z,101270.27
2019-06-08T17:15:17.373Z,101256.48
2019-06-08T17:17:47.865Z,101262.54
2019-06-08T17:20:18.515Z,101262.62
2019-06-08T17:22:49.025Z,101265.94
2019-06-08T17:25:19.679Z,101264.80
2019-06-08T17:27:50.082Z,101263.64
2019-06-08T17:30:20.581Z,101260.30
2019-06-08T17:32:51.090Z,101270.77
2019-06-08T17:35:21.568Z,101268.13
2019-06-08T17:37:52.094Z,101271.22
2019-06-08T17:40:22.646Z,101273.23
2019-06-08T17:42:53.210Z,101272.58
2019-06-08T17:45:23.744Z,101279.10
2019-06-08T17:47:54.248Z,101285.59
2019-06-08T17:50:24.718Z,101291.63
2019-06-08T17:52:55.193Z,101310.99
2019-06-08T17:55:25.690Z,101318.34
2019-06-08T17:57:56.101Z,101297.50
2019-06-08T18:00:26.671Z,101287.27
2019-06-08T18:03:00.378Z,101276.82
2019-06-08T18:05:29.379Z,101279.75
2019-06-08T18:07:59.874Z,101287.66
2019-06-08T18:10:30.874Z,101275.59
2019-06-08T18:13:01.330Z,101272.90
2019-06-08T18:15:31.800Z,101273.02
2019-06-08T18:18:02.224Z,101269.13
2019-06-08T18:20:32.717Z,101274.80
2019-06-08T18:23:03.196Z,101313.78
2019-06-08T18:25:34.247Z,101342.41
2019-06-08T18:28:10.330Z,101335.09
2019-06-08T18:30:39.699Z,101331.67
2019-06-08T18:33:09.190Z,101318.16
2019-06-08T18:35:41.771Z,101287.53
2019-06-08T18:38:11.956Z,101272.23
2019-06-08T18:40:43.468Z,101289.97
2019-06-08T18:43:14.052Z,101300.56
2019-06-08T18:45:47.916Z,101305.04
2019-06-08T18:48:17.578Z,101309.98
2019-06-08T18:50:48.616Z,101307.13
2019-06-08T18:53:19.342Z,101298.06
2019-06-08T18:55:50.736Z,101307.28
2019-06-08T18:58:24.987Z,101304.11
2019-06-08T19:00:53.531Z,101324.00
2019-06-08T19:03:24.026Z,101320.54
2019-06-08T19:05:54.567Z,101333.39
2019-06-08T19:08:25.112Z,101370.04
2019-06-08T19:10:57.341Z,101392.06
2019-06-08T19:13:27.780Z,101365.19
2019-06-08T19:15:59.856Z,101364.89
2019-06-08T19:18:30.696Z,101374.91
2019-06-08T19:21:01.165Z,101370.80
2019-06-08T19:23:31.626Z,101374.73
2019-06-08T19:26:02.249Z,101372.41
2019-06-08T19:28:36.330Z,101368.74
2019-06-08T19:31:04.868Z,101364.15
2019-06-08T19:33:35.364Z,101364.21
2019-06-08T19:36:07.749Z,101358.21
2019-06-08T19:38:39.731Z,101362.00
2019-06-08T19:41:10.375Z,101359.11
2019-06-08T19:43:42.136Z,101357.95
2019-06-08T19:46:13.099Z,101356.01
2019-06-08T19:48:44.473Z,101362.59
2019-06-08T19:51:17.101Z,101357.14
2019-06-08T19:53:52.899Z,101364.84
2019-06-08T19:56:21.357Z,101365.46
2019-06-08T19:59:00.948Z,101359.59
2019-06-08T20:01:24.359Z,101368.25
2019-06-08T20:03:54.844Z,101374.16
2019-06-08T20:06:27.808Z,101377.22
2019-06-08T20:08:57.763Z,101379.95
2019-06-08T20:11:29.364Z,101381.95
2019-06-08T20:14:00.131Z,101384.95
2019-06-08T20:16:30.540Z,101387.81
2019-06-08T20:19:01.076Z,101389.66
2019-06-08T20:21:31.587Z,101386.22
2019-06-08T20:24:02.795Z,101387.55
2019-06-08T20:26:33.306Z,101385.61
2019-06-08T20:29:15.524Z,101391.61
2019-06-08T20:31:38.540Z,101388.47
2019-06-08T20:34:08.830Z,101397.58
2019-06-08T20:36:39.315Z,101403.03
2019-06-08T20:39:10.020Z,101404.77
2019-06-08T20:41:41.694Z,101410.27
2019-06-08T20:44:12.245Z,101417.76
2019-06-08T20:46:42.722Z,101421.88
2019-06-08T20:49:13.260Z,101414.89
2019-06-08T20:51:44.427Z,101417.11
2019-06-08T20:54:17.162Z,101419.95
2019-06-08T20:56:47.905Z,101424.31
2019-06-08T20:59:29.834Z,101424.59
2019-06-08T21:01:52.665Z,101424.02
2019-06-08T21:04:23.976Z,101426.05
2019-06-08T21:06:54.491Z,101426.73
2019-06-08T21:09:24.998Z,101428.97
2019-06-08T21:11:56.365Z,101433.39
2019-06-08T21:14:27.717Z,101430.78
2019-06-08T21:16:58.762Z,101431.77
2019-06-08T21:19:29.462Z,101434.98
2019-06-08T21:22:00.180Z,101438.25
2019-06-08T21:24:30.703Z,101441.92
2019-06-08T21:27:01.210Z,101444.48
2019-06-08T21:29:47.015Z,101442.97
2019-06-08T21:32:03.944Z,101444.45
2019-06-08T21:34:34.424Z,101447.11
2019-06-08T21:37:04.923Z,101452.85
2019-06-08T21:39:36.685Z,101455.28
2019-06-08T21:42:07.973Z,101459.52
2019-06-08T21:44:39.281Z,101457.13
2019-06-08T21:47:09.750Z,101466.22
2019-06-08T21:49:40.289Z,101461.30
2019-06-08T21:52:10.908Z,101463.96
2019-06-08T21:54:41.705Z,101461.15
2019-06-08T21:57:12.187Z,101463.97
2019-06-08T21:59:42.701Z,101467.87
2019-06-08T22:02:13.576Z,101466.25
2019-06-08T22:04:44.072Z,101469.69
2019-06-08T22:07:14.658Z,101470.32
2019-06-08T22:09:45.144Z,101467.58
2019-06-08T22:12:17.362Z,101467.87
2019-06-08T22:14:47.922Z,101475.42
2019-06-08T22:17:18.957Z,101475.93
2019-06-08T22:19:51.503Z,101472.90
2019-06-08T22:22:21.831Z,101471.52
2019-06-08T22:24:53.456Z,101475.86
2019-06-08T22:27:24.019Z,101481.98
2019-06-08T22:29:55.548Z,101470.45
2019-06-08T22:32:27.685Z,101481.09
2019-06-08T22:35:00.240Z,101482.84
2019-06-08T22:37:30.590Z,101483.95
2019-06-08T22:40:01.170Z,101483.83
2019-06-08T22:42:31.700Z,101483.83
2019-06-08T22:45:03.572Z,101490.26
2019-06-08T22:47:34.449Z,101493.52
2019-06-08T22:50:07.785Z,101488.64
2019-06-08T22:52:38.168Z,101497.08
2019-06-08T22:55:10.835Z,101494.42
2019-06-08T22:57:41.818Z,101492.97
2019-06-08T23:00:17.582Z,101498.20
2019-06-08T23:02:44.772Z,101499.02
2019-06-08T23:05:18.380Z,101498.67
2019-06-08T23:07:48.797Z,101494.77
2019-06-08T23:10:19.569Z,101492.28
2019-06-08T23:12:50.076Z,101491.86
2019-06-08T23:15:20.613Z,101493.48
2019-06-08T23:17:51.122Z,101497.89
2019-06-08T23:20:21.640Z,101496.14
2019-06-08T23:22:52.202Z,101494.37
2019-06-08T23:25:22.694Z,101491.84
2019-06-08T23:27:53.196Z,101501.36
2019-06-08T23:30:23.746Z,101505.17
2019-06-08T23:32:54.198Z,101501.19
2019-06-08T23:35:24.693Z,101505.80
2019-06-08T23:37:55.166Z,101505.17
2019-06-08T23:40:27.233Z,101508.97
2019-06-08T23:42:58.619Z,101498.89
2019-06-08T23:45:30.263Z,101504.68
2019-06-08T23:48:01.157Z,101501.52
2019-06-08T23:50:32.215Z,101501.89
2019-06-08T23:53:02.674Z,101505.19
2019-06-08T23:55:33.150Z,101507.20
2019-06-08T23:58:05.014Z,101509.64
